Time;durP1;ratioP1;P1;durP2;ratioP2;P2;SDS_P1;SDS_P2;PMS_P1;PMS_P2;Temp;Humidity;BMP_temperature;BMP_pressure;BME280_temperature;BME280_humidity;BME280_pressure;Samples;Min_cycle;Max_cycle;Signal;HPM_P1;HPM_P2
2022/12/23 00:02:08;;;;;;;45.10;28.73;;;6.80;94.70;;;;;;5032480;28;20053;-64
2022/12/23 00:04:37;;;;;;;43.55;27.38;;;6.80;94.70;;;;;;5031716;28;20025;-64
2022/12/23 00:07:07;;;;;;;44.17;28.60;;;6.80;94.70;;;;;;5032650;28;20037;-64
2022/12/23 00:09:34;;;;;;;46.25;28.67;;;6.80;94.70;;;;;;5033097;28;20069;-64
2022/12/23 00:15:04;;;;;;;41.63;27.38;;;6.70;94.80;;;;;;5056228;28;20104;-64
2022/12/23 00:17:34;;;;;;;43.63;27.85;;;6.70;94.80;;;;;;5054902;28;20128;-64
2022/12/23 00:20:02;;;;;;;40.15;27.80;;;6.80;94.80;;;;;;5056241;28;20021;-64
2022/12/23 00:25:18;;;;;;;43.08;28.08;;;6.70;94.70;;;;;;5056100;28;20064;-64
2022/12/23 00:28:00;;;;;;;43.15;27.55;;;6.70;94.80;;;;;;5042734;28;20545;-63
2022/12/23 00:30:27;;;;;;;40.50;26.48;;;6.70;94.80;;;;;;5036246;28;20044;-63
2022/12/23 00:32:57;;;;;;;39.78;26.58;;;6.70;94.80;;;;;;5035233;28;20018;-62
2022/12/23 00:35:24;;;;;;;42.42;26.23;;;6.70;94.80;;;;;;5037879;28;20025;-62
2022/12/23 00:37:50;;;;;;;37.63;27.70;;;6.70;94.80;;;;;;5056184;28;20079;-62
2022/12/23 00:43:02;;;;;;;42.97;26.83;;;6.70;94.80;;;;;;5016548;28;20032;-62
2022/12/23 00:45:29;;;;;;;42.53;28.00;;;6.70;94.80;;;;;;5015919;28;20033;-61
2022/12/23 00:50:41;;;;;;;46.42;29.55;;;6.70;94.70;;;;;;5053519;28;20156;-61
2022/12/23 00:53:08;;;;;;;40.33;27.27;;;6.70;94.80;;;;;;5054764;28;20021;-61
2022/12/23 00:55:35;;;;;;;41.70;28.02;;;6.70;94.80;;;;;;5052767;28;20029;-61
2022/12/23 00:58:01;;;;;;;41.88;28.77;;;6.60;94.70;;;;;;5054410;28;20033;-58
2022/12/23 01:05:59;;;;;;;40.50;26.52;;;6.50;94.70;;;;;;5047349;28;20044;-57
2022/12/23 01:08:27;;;;;;;37.15;25.15;;;6.50;94.70;;;;;;5054920;28;20525;-57
2022/12/23 01:10:55;;;;;;;35.83;24.60;;;6.50;94.70;;;;;;5054141;28;20074;-56
2022/12/23 01:13:21;;;;;;;40.97;25.25;;;6.50;94.70;;;;;;5037406;28;20366;-56
2022/12/23 01:15:51;;;;;;;38.67;27.10;;;6.50;94.70;;;;;;5035427;28;20030;-51
2022/12/23 01:18:20;;;;;;;40.85;27.17;;;6.40;94.70;;;;;;5035088;28;20033;-56
2022/12/23 01:20:47;;;;;;;40.30;25.15;;;6.40;94.70;;;;;;5035369;28;20029;-58
2022/12/23 01:23:14;;;;;;;42.45;26.73;;;6.40;94.70;;;;;;5036717;28;20033;-56
2022/12/23 01:25:39;;;;;;;44.47;27.73;;;6.40;94.70;;;;;;5053588;28;20036;-54
2022/12/23 01:28:06;;;;;;;43.60;26.10;;;6.40;94.80;;;;;;5055018;28;20029;-57
2022/12/23 01:30:33;;;;;;;39.70;26.92;;;6.40;94.80;;;;;;5046753;28;20029;-53
2022/12/23 01:33:02;;;;;;;44.35;27.60;;;6.40;94.80;;;;;;5033962;28;20053;-57
2022/12/23 01:35:29;;;;;;;49.47;30.48;;;6.40;94.80;;;;;;5033883;28;20033;-55
2022/12/23 01:37:55;;;;;;;48.58;30.77;;;6.40;94.80;;;;;;5035101;28;20339;-57
2022/12/23 01:40:22;;;;;;;47.13;29.90;;;6.40;94.80;;;;;;5034603;28;20021;-53
2022/12/23 01:42:47;;;;;;;48.90;31.73;;;6.40;94.80;;;;;;5034459;28;20030;-56
2022/12/23 01:45:27;;;;;;;51.28;30.63;;;6.40;94.80;;;;;;5034080;28;20084;-56
2022/12/23 01:48:09;;;;;;;48.95;30.30;;;6.40;94.90;;;;;;5051358;28;20094;-54
2022/12/23 01:51:04;;;;;;;48.92;28.45;;;6.40;94.90;;;;;;5054440;28;20060;-54
2022/12/23 01:53:41;;;;;;;49.88;31.08;;;6.40;94.80;;;;;;5013737;28;20306;-55
2022/12/23 01:56:22;;;;;;;48.42;29.65;;;6.40;94.90;;;;;;5041828;28;20029;-51
2022/12/23 01:59:09;;;;;;;49.90;29.58;;;6.50;94.90;;;;;;5054270;28;20367;-52
2022/12/23 02:04:24;;;;;;;47.55;28.63;;;6.40;94.90;;;;;;5048069;28;20051;-56
2022/12/23 02:09:39;;;;;;;49.15;31.42;;;6.40;94.90;;;;;;5034267;28;20092;-57
2022/12/23 02:12:29;;;;;;;47.55;28.83;;;6.50;94.90;;;;;;5042981;28;20039;-56
2022/12/23 02:18:50;;;;;;;47.28;27.45;;;6.40;94.90;;;;;;5051817;28;20124;-58
2022/12/23 02:21:27;;;;;;;42.67;27.45;;;6.40;94.90;;;;;;5054118;28;20479;-56
2022/12/23 02:24:41;;;;;;;45.05;27.42;;;6.50;94.90;;;;;;5053812;28;20025;-61
2022/12/23 02:27:24;;;;;;;43.80;24.95;;;6.50;94.90;;;;;;5018106;28;20359;-63
2022/12/23 02:30:27;;;;;;;57.40;32.35;;;6.50;94.90;;;;;;5022708;28;20033;-61
2022/12/23 02:33:16;;;;;;;52.03;30.17;;;6.50;94.90;;;;;;5033291;28;20044;-64
2022/12/23 02:36:19;;;;;;;47.58;30.42;;;6.50;95.00;;;;;;5041551;28;20024;-63
2022/12/23 02:38:59;;;;;;;52.60;31.63;;;6.50;94.90;;;;;;5051082;28;20036;-62
2022/12/23 02:41:49;;;;;;;56.25;33.80;;;6.50;94.90;;;;;;5013504;28;20091;-62
2022/12/23 02:44:33;;;;;;;46.75;28.95;;;6.50;94.90;;;;;;5030956;28;20095;-61
2022/12/23 02:47:14;;;;;;;50.42;29.48;;;6.50;95.00;;;;;;5052985;28;20467;-60
2022/12/23 02:49:46;;;;;;;58.05;31.80;;;6.50;94.90;;;;;;5053393;28;20062;-59
2022/12/23 02:52:19;;;;;;;53.88;29.50;;;6.50;94.90;;;;;;5050999;28;20033;-58
2022/12/23 02:54:52;;;;;;;59.60;31.13;;;6.50;95.00;;;;;;5052510;28;20174;-58
2022/12/23 02:57:23;;;;;;;57.53;31.40;;;6.50;95.00;;;;;;5035597;28;20025;-61
2022/12/23 02:59:54;;;;;;;53.58;30.75;;;6.50;95.00;;;;;;5048236;28;20032;-62
2022/12/23 03:02:20;;;;;;;54.42;30.77;;;6.50;95.00;;;;;;5032322;28;20080;-64
2022/12/23 03:04:47;;;;;;;59.03;31.58;;;6.50;95.00;;;;;;5032546;28;20128;-64
2022/12/23 03:07:22;;;;;;;58.10;28.45;;;6.60;95.00;;;;;;5039026;28;20044;-64
2022/12/23 03:10:22;;;;;;;66.55;31.65;;;6.50;95.00;;;;;;5053065;28;20021;-63
2022/12/23 03:13:06;;;;;;;;;;;6.50;95.00;;;;;;5014119;28;20049;-62
2022/12/23 03:16:09;;;;;;;58.30;30.75;;;6.60;95.10;;;;;;5013633;28;20250;-61
2022/12/23 03:18:56;;;;;;;56.58;28.85;;;6.60;95.10;;;;;;5013371;28;20344;-61
2022/12/23 03:21:33;;;;;;;63.05;29.88;;;6.60;95.10;;;;;;5029783;28;20099;-60
2022/12/23 03:24:19;;;;;;;65.45;30.42;;;6.60;95.10;;;;;;5033290;28;20573;-58
2022/12/23 03:27:04;;;;;;;60.25;29.55;;;6.60;95.10;;;;;;5032270;28;20075;-59
2022/12/23 03:29:52;;;;;;;63.03;28.15;;;6.60;95.10;;;;;;5035452;28;20025;-57
2022/12/23 03:32:22;;;;;;;65.45;30.70;;;6.60;95.10;;;;;;5052549;28;20371;-58
2022/12/23 03:34:54;;;;;;;65.40;31.02;;;6.60;95.20;;;;;;5034361;28;20079;-58
2022/12/23 03:37:24;;;;;;;59.33;29.08;;;6.60;95.10;;;;;;5032960;28;20079;-58
2022/12/23 03:39:56;;;;;;;61.60;28.35;;;6.60;95.10;;;;;;5037891;28;20032;-54
2022/12/23 03:42:41;;;;;;;62.15;31.85;;;6.60;95.10;;;;;;5052070;28;20071;-57
2022/12/23 03:45:16;;;;;;;70.32;30.35;;;6.60;95.10;;;;;;5052488;28;20033;-53
2022/12/23 03:47:58;;;;;;;66.15;29.08;;;6.60;95.10;;;;;;5054758;28;20075;-52
2022/12/23 03:50:26;;;;;;;70.43;31.48;;;6.60;95.10;;;;;;5056849;28;20028;-52
2022/12/23 03:53:05;;;;;;;68.15;33.38;;;6.60;95.20;;;;;;5037499;28;20018;-53
2022/12/23 03:55:43;;;;;;;65.22;31.17;;;6.60;95.20;;;;;;5036635;28;20030;-52
2022/12/23 03:58:23;;;;;;;69.25;32.35;;;6.60;95.20;;;;;;5050834;28;20347;-54
2022/12/23 04:01:16;;;;;;;;;;;6.60;95.20;;;;;;5056228;28;20060;-50
2022/12/23 04:03:57;;;;;;;67.80;30.52;;;6.60;95.30;;;;;;5047019;28;19932;-54
2022/12/23 04:06:27;;;;;;;62.47;30.33;;;6.60;95.30;;;;;;5035735;28;20140;-50
2022/12/23 04:09:00;;;;;;;67.63;31.42;;;6.60;95.20;;;;;;5036423;28;20121;-50
2022/12/23 04:11:28;;;;;;;69.55;31.45;;;6.60;95.20;;;;;;5045611;28;20025;-53
2022/12/23 04:13:57;;;;;;;63.47;30.75;;;6.60;95.30;;;;;;5055561;28;20083;-54
2022/12/23 04:16:26;;;;;;;67.50;29.90;;;6.60;95.30;;;;;;5056393;28;20021;-54
2022/12/23 04:18:52;;;;;;;63.83;30.80;;;6.60;95.30;;;;;;5056581;28;20440;-56
2022/12/23 04:21:21;;;;;;;83.82;33.63;;;6.60;95.30;;;;;;5041152;28;20036;-53
2022/12/23 04:23:50;;;;;;;84.07;35.17;;;6.50;95.20;;;;;;5036131;28;20037;-51
2022/12/23 04:26:20;;;;;;;75.95;32.00;;;6.50;95.30;;;;;;5044362;28;20041;-49
2022/12/23 04:28:49;;;;;;;;;;;6.50;95.30;;;;;;5055772;28;20032;-50
2022/12/23 04:31:15;;;;;;;68.65;31.13;;;6.50;95.30;;;;;;5055902;28;19909;-49
2022/12/23 04:33:43;;;;;;;76.45;32.80;;;6.50;95.30;;;;;;5039837;28;20423;-54
2022/12/23 04:36:10;;;;;;;59.03;31.10;;;6.50;95.30;;;;;;5036355;28;20343;-48
2022/12/23 04:38:37;;;;;;;63.33;29.77;;;6.50;95.30;;;;;;5036134;28;20018;-55
2022/12/23 04:41:03;;;;;;;62.20;29.55;;;6.40;95.30;;;;;;5037068;28;20025;-53
2022/12/23 04:43:28;;;;;;;66.50;30.10;;;6.50;95.30;;;;;;5056090;28;20059;-48
2022/12/23 04:45:55;;;;;;;64.22;29.98;;;6.50;95.30;;;;;;5039838;28;20095;-50
2022/12/23 04:48:21;;;;;;;68.15;31.95;;;6.40;95.30;;;;;;5038998;28;20028;-53
2022/12/23 04:50:47;;;;;;;74.90;31.00;;;6.40;95.30;;;;;;5055407;28;20072;-54
2022/12/23 04:53:13;;;;;;;65.25;31.23;;;6.40;95.30;;;;;;5056099;28;20055;-52
2022/12/23 04:55:40;;;;;;;63.03;28.35;;;6.40;95.30;;;;;;5054160;28;20031;-54
2022/12/23 04:58:07;;;;;;;65.03;30.13;;;6.40;95.30;;;;;;5055002;28;20049;-51
2022/12/23 05:00:34;;;;;;;66.93;29.60;;;6.40;95.30;;;;;;5055213;28;20092;-52
2022/12/23 05:03:03;;;;;;;95.78;29.88;;;6.40;95.30;;;;;;5036236;28;20772;-51
2022/12/23 05:05:30;;;;;;;144.20;34.22;;;6.40;95.30;;;;;;5035812;28;20665;-51
2022/12/23 05:08:03;;;;;;;133.85;31.85;;;6.40;95.30;;;;;;5045480;28;20535;-51
2022/12/23 05:10:32;;;;;;;66.82;27.10;;;6.30;95.30;;;;;;5055262;28;20039;-54
2022/12/23 05:13:01;;;;;;;69.53;25.35;;;6.40;95.30;;;;;;5032109;28;20057;-53
2022/12/23 05:15:29;;;;;;;57.90;25.95;;;6.30;95.30;;;;;;5026828;28;20041;-52
2022/12/23 05:17:56;;;;;;;136.40;32.90;;;6.30;95.30;;;;;;5035477;28;20021;-51
2022/12/23 05:20:25;;;;;;;52.40;25.15;;;6.30;95.30;;;;;;5022885;28;20026;-49
2022/12/23 05:22:52;;;;;;;69.05;26.40;;;6.30;95.30;;;;;;5015485;28;20041;-50
2022/12/23 05:25:22;;;;;;;102.53;26.88;;;6.30;95.30;;;;;;5032509;28;20037;-52
2022/12/23 05:27:49;;;;;;;83.70;28.20;;;6.30;95.30;;;;;;5034983;28;20133;-50
2022/12/23 05:30:14;;;;;;;57.05;25.10;;;6.20;95.40;;;;;;5025826;28;20029;-51
2022/12/23 05:32:41;;;;;;;47.95;23.77;;;6.30;95.40;;;;;;5023868;28;20040;-54
2022/12/23 05:35:08;;;;;;;57.85;22.40;;;6.30;95.40;;;;;;5023820;28;20049;-50
2022/12/23 05:37:35;;;;;;;127.00;27.85;;;6.20;95.30;;;;;;5025810;28;20099;-48
2022/12/23 05:40:03;;;;;;;52.13;24.95;;;6.30;95.30;;;;;;5017715;28;20101;-49
2022/12/23 05:42:30;;;;;;;181.88;34.20;;;6.20;95.30;;;;;;5014795;28;20041;-54
2022/12/23 05:44:56;;;;;;;70.50;25.52;;;6.20;95.30;;;;;;5015113;28;20025;-48
2022/12/23 05:47:23;;;;;;;66.95;28.38;;;6.20;95.30;;;;;;5021853;28;20403;-48
2022/12/23 05:49:50;;;;;;;47.47;24.35;;;6.20;95.30;;;;;;5023170;28;20526;-49
2022/12/23 05:52:15;;;;;;;45.88;24.15;;;6.20;95.40;;;;;;5026768;28;20459;-48
2022/12/23 05:54:42;;;;;;;43.00;22.02;;;6.20;95.30;;;;;;5026366;28;20037;-52
2022/12/23 05:57:11;;;;;;;42.05;22.13;;;6.20;95.30;;;;;;5029588;28;20029;-49
2022/12/23 05:59:38;;;;;;;47.05;23.23;;;6.20;95.30;;;;;;5025533;28;20026;-52
2022/12/23 06:02:05;;;;;;;68.00;25.02;;;6.20;95.40;;;;;;5020669;28;20054;-48
2022/12/23 06:04:32;;;;;;;46.22;23.85;;;6.20;95.30;;;;;;5025901;28;20021;-49
2022/12/23 06:06:59;;;;;;;44.92;20.98;;;6.20;95.30;;;;;;5024435;28;20025;-53
2022/12/23 06:09:25;;;;;;;46.40;24.15;;;6.20;95.30;;;;;;5033991;28;20040;-50
2022/12/23 06:11:52;;;;;;;60.78;24.55;;;6.20;95.30;;;;;;5024547;28;20328;-48
2022/12/23 06:14:19;;;;;;;43.58;22.73;;;6.20;95.30;;;;;;5026003;28;20447;-51
2022/12/23 06:16:50;;;;;;;52.40;23.85;;;6.20;95.30;;;;;;5026460;28;20651;-50
2022/12/23 06:19:17;;;;;;;40.95;21.50;;;6.10;95.30;;;;;;5023013;28;20013;-50
2022/12/23 06:21:44;;;;;;;48.20;24.08;;;6.10;95.30;;;;;;5023131;28;20018;-50
2022/12/23 06:24:11;;;;;;;41.53;22.63;;;6.20;95.30;;;;;;5024666;28;20036;-52
2022/12/23 06:26:38;;;;;;;45.95;23.73;;;6.10;95.40;;;;;;5023093;28;20033;-55
2022/12/23 06:29:04;;;;;;;46.72;21.98;;;6.10;95.30;;;;;;5022554;28;20050;-50
2022/12/23 06:31:31;;;;;;;49.70;22.40;;;6.10;95.30;;;;;;5023408;28;20057;-52
2022/12/23 06:33:59;;;;;;;49.55;22.90;;;6.10;95.40;;;;;;5026144;28;20052;-53
2022/12/23 06:36:26;;;;;;;44.90;20.98;;;6.20;95.30;;;;;;5053757;28;20112;-52
2022/12/23 06:38:53;;;;;;;48.20;22.63;;;6.10;95.40;;;;;;5052315;28;20025;-49
2022/12/23 06:41:19;;;;;;;49.45;21.40;;;6.20;95.40;;;;;;5026924;28;20245;-48
2022/12/23 06:43:47;;;;;;;51.60;23.13;;;6.10;95.40;;;;;;5025583;28;20022;-49
2022/12/23 06:46:13;;;;;;;47.65;21.05;;;6.10;95.30;;;;;;5020732;28;20343;-49
2022/12/23 06:48:40;;;;;;;49.88;22.42;;;6.10;95.30;;;;;;5021746;28;20032;-49
2022/12/23 06:51:07;;;;;;;45.78;20.88;;;6.10;95.30;;;;;;5020379;28;20121;-53
2022/12/23 06:53:34;;;;;;;53.22;20.23;;;6.10;95.40;;;;;;5023986;28;20463;-47
2022/12/23 06:56:02;;;;;;;45.95;22.40;;;6.10;95.30;;;;;;5025172;28;20156;-50
2022/12/23 06:58:29;;;;;;;45.72;20.92;;;6.10;95.40;;;;;;5027112;28;20462;-50
2022/12/23 07:00:58;;;;;;;44.75;19.02;;;6.10;95.40;;;;;;5015897;28;20060;-48
2022/12/23 07:03:25;;;;;;;46.00;18.02;;;6.10;95.40;;;;;;5024344;28;20458;-53
2022/12/23 07:05:52;;;;;;;40.45;18.42;;;6.10;95.40;;;;;;5032996;28;20052;-47
2022/12/23 07:08:22;;;;;;;46.20;18.73;;;6.10;95.40;;;;;;5021967;28;20040;-48
2022/12/23 07:10:49;;;;;;;40.20;17.58;;;6.10;95.40;;;;;;5022816;28;20117;-49
2022/12/23 07:13:18;;;;;;;39.92;19.38;;;6.20;95.40;;;;;;5018796;28;20030;-50
2022/12/23 07:15:45;;;;;;;37.90;16.90;;;6.10;95.40;;;;;;5021823;28;20034;-49
2022/12/23 07:18:14;;;;;;;37.72;17.27;;;6.20;95.40;;;;;;5022217;28;20268;-49
2022/12/23 07:20:41;;;;;;;37.55;17.92;;;6.10;95.40;;;;;;5022795;28;20022;-48
2022/12/23 07:23:07;;;;;;;39.85;16.98;;;6.10;95.30;;;;;;5025229;28;20048;-50
2022/12/23 07:25:34;;;;;;;38.22;15.77;;;6.20;95.40;;;;;;5026420;28;20110;-47
2022/12/23 07:28:01;;;;;;;37.17;16.08;;;6.10;95.40;;;;;;5032572;28;20431;-49
2022/12/23 07:30:29;;;;;;;36.17;14.80;;;6.10;95.40;;;;;;5051405;28;20120;-49
2022/12/23 07:32:56;;;;;;;37.65;16.50;;;6.10;95.40;;;;;;5052518;28;20096;-49
2022/12/23 07:35:22;;;;;;;38.78;15.90;;;6.10;95.40;;;;;;5050320;28;20392;-47
2022/12/23 07:37:53;;;;;;;28.55;13.80;;;6.10;95.40;;;;;;5032637;28;20029;-50
2022/12/23 07:40:21;;;;;;;29.73;15.18;;;6.20;95.40;;;;;;5030855;28;20028;-48
2022/12/23 07:42:53;;;;;;;39.28;15.57;;;6.20;95.40;;;;;;5023825;28;20029;-51
2022/12/23 07:45:19;;;;;;;37.72;17.00;;;6.20;95.40;;;;;;5012111;28;20345;-48
2022/12/23 07:47:46;;;;;;;36.53;16.98;;;6.20;95.30;;;;;;5012713;28;20092;-50
2022/12/23 07:50:13;;;;;;;37.97;15.60;;;6.20;95.40;;;;;;5015385;28;20029;-50
2022/12/23 07:52:40;;;;;;;33.63;15.15;;;6.20;95.40;;;;;;5028981;28;20029;-51
2022/12/23 07:55:07;;;;;;;34.95;17.20;;;6.20;95.40;;;;;;5029268;28;20030;-48
2022/12/23 07:57:36;;;;;;;39.55;17.52;;;6.20;95.40;;;;;;5021297;28;20026;-47
2022/12/23 08:00:08;;;;;;;35.53;16.63;;;6.20;95.40;;;;;;5026325;28;20029;-51
2022/12/23 08:02:41;;;;;;;32.25;16.55;;;6.30;95.50;;;;;;5021875;28;20140;-47
2022/12/23 08:05:09;;;;;;;33.95;16.67;;;6.40;95.60;;;;;;5023711;28;20367;-48
2022/12/23 08:07:41;;;;;;;39.63;16.38;;;6.50;95.70;;;;;;5021063;28;20710;-50
2022/12/23 08:10:08;;;;;;;32.92;15.38;;;6.50;95.60;;;;;;5023334;28;20056;-47
2022/12/23 08:12:35;;;;;;;36.63;16.45;;;6.50;95.40;;;;;;5024674;28;20602;-47
2022/12/23 08:15:01;;;;;;;36.22;14.85;;;6.50;95.50;;;;;;5028902;28;20026;-48
2022/12/23 08:17:29;;;;;;;37.45;17.92;;;6.70;95.70;;;;;;5025825;28;20095;-47
2022/12/23 08:19:55;;;;;;;36.22;15.90;;;6.70;95.60;;;;;;5027411;28;20029;-49
2022/12/23 08:22:23;;;;;;;40.75;17.20;;;6.90;95.70;;;;;;5020722;28;20025;-47
2022/12/23 08:24:51;;;;;;;34.97;15.05;;;6.70;95.40;;;;;;5030200;28;20036;-50
2022/12/23 08:27:18;;;;;;;42.60;15.70;;;6.70;95.40;;;;;;5040308;28;20022;-51
2022/12/23 08:29:45;;;;;;;29.42;14.93;;;6.70;95.60;;;;;;5031179;28;20072;-47
2022/12/23 08:32:12;;;;;;;33.65;14.85;;;6.70;95.40;;;;;;5029475;28;20043;-46
2022/12/23 08:34:39;;;;;;;31.92;14.40;;;6.70;95.40;;;;;;5036835;28;20064;-47
2022/12/23 08:37:06;;;;;;;30.67;14.18;;;6.70;95.40;;;;;;5033691;28;20026;-51
2022/12/23 08:39:33;;;;;;;26.58;13.45;;;6.80;95.40;;;;;;5033161;28;20025;-53
2022/12/23 08:42:00;;;;;;;35.35;15.68;;;6.80;95.30;;;;;;5027665;28;20044;-51
2022/12/23 08:44:26;;;;;;;27.35;14.27;;;6.90;95.40;;;;;;5032634;28;20109;-50
2022/12/23 08:46:55;;;;;;;28.80;14.50;;;6.80;95.30;;;;;;5029571;28;20079;-49
2022/12/23 08:49:23;;;;;;;39.72;16.30;;;6.90;95.40;;;;;;5020418;28;20080;-48
2022/12/23 08:51:49;;;;;;;24.70;12.52;;;6.90;95.30;;;;;;5027233;28;20526;-46
2022/12/23 08:54:19;;;;;;;29.40;14.35;;;6.90;95.30;;;;;;5032090;28;20032;-47
2022/12/23 08:56:46;;;;;;;23.48;12.68;;;6.90;95.30;;;;;;5027741;28;20035;-47
2022/12/23 08:59:14;;;;;;;24.45;12.00;;;7.00;95.20;;;;;;5019620;28;20033;-48
2022/12/23 09:01:41;;;;;;;22.63;11.40;;;7.00;95.20;;;;;;5023701;28;20041;-49
2022/12/23 09:04:11;;;;;;;25.10;12.70;;;7.00;95.20;;;;;;5030128;28;20134;-47
2022/12/23 09:06:39;;;;;;;;;;;7.00;95.20;;;;;;5031703;28;20506;-47
2022/12/23 09:09:08;;;;;;;25.02;11.55;;;7.10;95.20;;;;;;5029126;28;19909;-52
2022/12/23 09:11:36;;;;;;;24.75;11.55;;;7.10;95.10;;;;;;5016303;28;20356;-46
2022/12/23 09:14:04;;;;;;;21.65;11.25;;;7.10;95.10;;;;;;5034181;28;20108;-49
2022/12/23 09:16:31;;;;;;;21.50;11.27;;;7.20;95.20;;;;;;5034159;28;20494;-46
2022/12/23 09:18:58;;;;;;;24.15;11.82;;;7.20;95.10;;;;;;5020988;28;20089;-49
2022/12/23 09:21:25;;;;;;;23.27;12.38;;;7.20;95.00;;;;;;5032713;28;20812;-48
2022/12/23 09:23:54;;;;;;;22.40;12.10;;;7.20;95.10;;;;;;5033128;28;20132;-46
2022/12/23 09:26:26;;;;;;;21.13;12.98;;;7.30;95.10;;;;;;5034047;28;20072;-47
2022/12/23 09:28:53;;;;;;;28.15;13.50;;;7.30;95.00;;;;;;5018012;28;20041;-48
2022/12/23 09:31:21;;;;;;;21.10;11.38;;;7.40;95.00;;;;;;5020636;28;20037;-46
2022/12/23 09:33:50;;;;;;;27.77;13.55;;;7.40;95.00;;;;;;5030264;28;20304;-47
2022/12/23 09:36:17;;;;;;;21.00;11.20;;;7.40;95.00;;;;;;5020435;28;20146;-47
2022/12/23 09:38:46;;;;;;;23.13;11.35;;;7.40;94.90;;;;;;5020931;28;20148;-46
2022/12/23 09:41:26;;;;;;;22.00;9.98;;;7.40;94.90;;;;;;5032716;28;20036;-47
2022/12/23 09:44:27;;;;;;;29.35;11.98;;;7.40;94.90;;;;;;5043175;28;20094;-48
2022/12/23 09:46:59;;;;;;;22.65;11.30;;;7.50;94.90;;;;;;5032066;28;20033;-46
2022/12/23 09:49:26;;;;;;;22.42;10.55;;;7.50;94.90;;;;;;5025071;28;20056;-46
2022/12/23 09:51:59;;;;;;;19.10;9.82;;;7.50;94.70;;;;;;5032245;28;20449;-47
2022/12/23 09:54:28;;;;;;;23.13;10.93;;;7.40;94.80;;;;;;5033487;28;20025;-49
2022/12/23 09:57:32;;;;;;;18.98;11.10;;;7.50;94.80;;;;;;5032702;28;20026;-48
2022/12/23 10:00:16;;;;;;;18.40;10.48;;;7.50;94.80;;;;;;5022806;28;20087;-47
2022/12/23 10:03:24;;;;;;;21.38;10.60;;;7.60;94.80;;;;;;5033392;28;20064;-46
2022/12/23 10:06:10;;;;;;;19.23;10.05;;;7.70;94.90;;;;;;5033432;28;20108;-46
2022/12/23 10:08:40;;;;;;;21.52;11.32;;;7.90;94.90;;;;;;5032641;28;20025;-47
2022/12/23 10:11:16;;;;;;;17.20;8.95;;;7.90;94.70;;;;;;5033324;28;20106;-47
2022/12/23 10:14:22;;;;;;;22.38;11.45;;;8.00;94.80;;;;;;5038262;28;20088;-45
2022/12/23 10:17:07;;;;;;;20.20;9.20;;;8.10;94.60;;;;;;5026402;28;20102;-47
2022/12/23 10:19:52;;;;;;;22.40;11.77;;;8.20;94.60;;;;;;5030613;28;20022;-45
2022/12/23 10:22:39;;;;;;;16.35;9.50;;;8.20;94.40;;;;;;5039140;28;20037;-45
2022/12/23 10:25:27;;;;;;;18.73;9.98;;;8.20;94.40;;;;;;5026227;28;20037;-46
2022/12/23 10:27:54;;;;;;;19.13;9.68;;;8.20;94.20;;;;;;5030096;28;20029;-46
2022/12/23 10:30:26;;;;;;;16.60;9.05;;;8.10;94.10;;;;;;5017040;28;20052;-46
2022/12/23 10:33:01;;;;;;;18.90;9.38;;;8.10;94.00;;;;;;5025571;28;20057;-49
2022/12/23 10:36:12;;;;;;;19.42;11.18;;;8.10;93.90;;;;;;5017160;28;20053;-46
2022/12/23 10:38:59;;;;;;;17.45;9.75;;;8.10;93.80;;;;;;5033682;28;20029;-47
2022/12/23 10:41:52;;;;;;;18.42;10.05;;;8.00;93.70;;;;;;5032989;28;20474;-44
2022/12/23 10:44:57;;;;;;;15.88;9.10;;;7.90;93.60;;;;;;5031205;28;21752;-44
2022/12/23 10:47:48;;;;;;;16.55;9.40;;;7.90;93.60;;;;;;5032024;28;20478;-44
2022/12/23 10:50:49;;;;;;;14.68;8.30;;;8.00;93.70;;;;;;5032862;28;20041;-44
2022/12/23 10:53:39;;;;;;;18.90;10.07;;;8.20;93.80;;;;;;5021089;28;20045;-49
2022/12/23 10:56:09;;;;;;;15.70;8.80;;;8.20;93.60;;;;;;5026417;28;20074;-46
2022/12/23 10:58:40;;;;;;;19.50;9.73;;;8.20;93.50;;;;;;5023625;28;20159;-45
2022/12/23 11:01:14;;;;;;;22.20;9.93;;;8.20;93.30;;;;;;5024015;28;20017;-44
2022/12/23 11:03:58;;;;;;;17.58;9.15;;;8.20;93.40;;;;;;5025010;28;20041;-45
2022/12/23 11:06:24;;;;;;;17.08;7.65;;;8.20;93.20;;;;;;5022705;28;20045;-45
2022/12/23 11:08:53;;;;;;;17.63;8.57;;;8.20;93.30;;;;;;5023561;28;20109;-47
2022/12/23 11:11:20;;;;;;;15.02;7.85;;;8.30;93.40;;;;;;5032241;28;20017;-45
2022/12/23 11:13:45;;;;;;;15.35;7.85;;;8.40;93.50;;;;;;5035500;28;20087;-45
2022/12/23 11:16:24;;;;;;;14.10;6.50;;;8.30;93.10;;;;;;5034051;28;20037;-46
2022/12/23 11:19:02;;;;;;;17.50;9.43;;;8.40;93.30;;;;;;5022060;28;20254;-45
2022/12/23 11:21:31;;;;;;;14.63;6.78;;;8.50;93.10;;;;;;5030639;28;20446;-44
2022/12/23 11:24:18;;;;;;;18.52;8.52;;;8.50;93.10;;;;;;5029124;28;20057;-44
2022/12/23 11:26:58;;;;;;;15.45;7.75;;;8.50;92.90;;;;;;5031369;28;20037;-47
2022/12/23 11:29:53;;;;;;;15.05;7.35;;;8.40;92.60;;;;;;5031186;28;20055;-46
2022/12/23 11:32:37;;;;;;;12.57;6.07;;;8.50;92.60;;;;;;5021064;28;20092;-45
2022/12/23 11:35:04;;;;;;;14.05;7.35;;;8.50;92.40;;;;;;5031556;28;20021;-45
2022/12/23 11:37:41;;;;;;;13.25;6.32;;;8.50;92.30;;;;;;5023162;28;20047;-48
2022/12/23 11:40:29;;;;;;;11.45;5.70;;;8.50;92.30;;;;;;5034757;28;20028;-47
2022/12/23 11:42:59;;;;;;;10.15;6.32;;;8.50;92.30;;;;;;5017900;28;20061;-49
2022/12/23 11:45:35;;;;;;;15.95;7.28;;;8.50;92.10;;;;;;5028879;28;20044;-44
2022/12/23 11:48:05;;;;;;;14.50;6.60;;;8.40;91.70;;;;;;5031673;28;20045;-45
2022/12/23 11:50:36;;;;;;;11.98;6.22;;;8.30;91.80;;;;;;5035438;28;20029;-45
2022/12/23 11:53:23;;;;;;;13.02;5.65;;;8.20;91.90;;;;;;5015365;28;20030;-47
2022/12/23 11:56:07;;;;;;;12.63;5.15;;;8.10;91.70;;;;;;5031233;28;20048;-46
2022/12/23 11:58:51;;;;;;;9.18;5.97;;;7.90;91.70;;;;;;5032585;28;20025;-44
2022/12/23 12:01:23;;;;;;;11.10;5.78;;;7.90;91.80;;;;;;5025413;28;20045;-45
2022/12/23 12:03:58;;;;;;;14.13;6.00;;;7.90;91.80;;;;;;5026935;28;20033;-46
2022/12/23 12:06:26;;;;;;;11.38;5.32;;;7.80;92.00;;;;;;5028150;28;20021;-44
2022/12/23 12:08:56;;;;;;;14.40;6.07;;;7.80;92.00;;;;;;5028628;28;20017;-47
2022/12/23 12:12:11;;;;;;;9.70;5.80;;;7.80;92.00;;;;;;5054311;28;20098;-48
2022/12/23 12:14:54;;;;;;;10.85;5.15;;;7.70;92.00;;;;;;5034806;28;20057;-46
2022/12/23 12:17:43;;;;;;;12.20;5.93;;;7.70;92.10;;;;;;5030646;28;20025;-48
2022/12/23 12:20:34;;;;;;;10.33;5.63;;;7.70;92.10;;;;;;5025719;28;20021;-49
2022/12/23 12:23:32;;;;;;;11.48;6.20;;;7.60;92.20;;;;;;5029710;28;20037;-47
2022/12/23 12:26:21;;;;;;;10.57;6.57;;;7.60;92.30;;;;;;5035298;28;20073;-49
2022/12/23 12:28:55;;;;;;;11.98;7.38;;;7.60;92.40;;;;;;5029736;28;20030;-46
2022/12/23 12:31:32;;;;;;;16.33;6.55;;;7.60;92.30;;;;;;5023325;28;20030;-44
2022/12/23 12:34:26;;;;;;;9.95;5.65;;;7.60;92.30;;;;;;5023540;28;20079;-48
2022/12/23 12:37:19;;;;;;;14.20;6.43;;;7.60;92.40;;;;;;5023964;28;20047;-47
2022/12/23 12:40:02;;;;;;;11.77;7.00;;;7.60;92.40;;;;;;5014620;28;20030;-48
2022/12/23 12:42:58;;;;;;;12.45;6.22;;;7.60;92.70;;;;;;5025678;28;20024;-45
2022/12/23 12:45:38;;;;;;;12.68;6.05;;;7.60;92.70;;;;;;5032573;28;20031;-46
2022/12/23 12:48:22;;;;;;;;;;;7.50;92.90;;;;;;5021603;28;20346;-44
2022/12/23 12:51:15;;;;;;;12.30;5.68;;;7.60;93.00;;;;;;5024221;28;19913;-47
2022/12/23 12:53:55;;;;;;;9.93;5.78;;;7.60;93.00;;;;;;5034667;28;20025;-45
2022/12/23 12:56:47;;;;;;;14.68;6.75;;;7.60;92.90;;;;;;5028246;28;20018;-45
2022/12/23 12:59:17;;;;;;;15.13;7.88;;;7.50;92.80;;;;;;5024250;28;20034;-46
2022/12/23 13:01:45;;;;;;;;;;;7.50;92.80;;;;;;5007324;28;20026;-46
2022/12/23 13:04:48;;;;;;;12.35;6.82;;;7.40;92.80;;;;;;5019928;28;20326;-45
2022/12/23 13:07:42;;;;;;;11.63;7.55;;;7.40;92.90;;;;;;5019190;28;20029;-45
2022/12/23 13:10:46;;;;;;;11.77;6.90;;;7.40;92.90;;;;;;5026670;28;20732;-45
2022/12/23 13:13:30;;;;;;;13.15;6.70;;;7.40;93.00;;;;;;5022306;28;20057;-46
2022/12/23 13:16:20;;;;;;;12.65;7.05;;;7.40;93.00;;;;;;5016483;28;20196;-47
2022/12/23 13:19:15;;;;;;;14.45;8.18;;;7.40;93.10;;;;;;5017036;28;20374;-45
2022/12/23 13:22:08;;;;;;;14.18;7.35;;;7.40;93.10;;;;;;5022016;28;20029;-47
2022/12/23 13:25:07;;;;;;;13.10;7.93;;;7.40;93.20;;;;;;5014159;28;20026;-45
2022/12/23 13:28:16;;;;;;;19.55;8.40;;;7.40;93.20;;;;;;5023547;28;20034;-46
2022/12/23 13:30:54;;;;;;;13.48;6.60;;;7.50;93.30;;;;;;5023950;28;20037;-47
2022/12/23 13:33:45;;;;;;;12.25;6.43;;;7.50;93.30;;;;;;5017982;28;20050;-46
2022/12/23 13:36:42;;;;;;;15.10;5.75;;;7.50;93.30;;;;;;5023647;28;20030;-47
2022/12/23 13:39:38;;;;;;;13.18;6.32;;;7.40;93.20;;;;;;5016630;28;20079;-44
2022/12/23 13:42:11;;;;;;;14.07;6.63;;;7.50;93.30;;;;;;5015145;28;20030;-49
2022/12/23 13:44:41;;;;;;;13.02;7.22;;;7.40;93.30;;;;;;5020544;28;20413;-45